Time,TemperatureF,DewpointF,PressureIn,WindDirection,WindDirectionDegrees,WindSpeedMPH,WindSpeedGustMPH,Humidity,HourlyPrecipIn,Conditions,Clouds,dailyrainin,SoftwareType,DateUTC
2013-11-03 00:04:00,33.3,30.1,30.19,NNW,327,0.0,0.0,88,0.00,,,0.00,Wunderground v.1.15,2013-11-03 05:04:00,
2013-11-03 00:14:00,33.2,30.0,30.19,NNW,327,0.0,0.0,88,0.00,,,0.00,Wunderground v.1.15,2013-11-03 05:14:00,
2013-11-03 00:24:00,33.2,30.0,30.20,NNW,327,0.0,0.0,88,0.00,,,0.00,Wunderground v.1.15,2013-11-03 05:24:00,
2013-11-03 00:33:00,32.6,29.4,30.20,NNW,327,0.0,0.0,88,0.00,,,0.00,Wunderground v.1.15,2013-11-03 05:33:00,
2013-11-03 00:43:00,32.0,28.8,30.20,NNW,327,0.0,0.0,88,0.00,,,0.00,Wunderground v.1.15,2013-11-03 05:43:00,
2013-11-03 00:53:00,32.0,28.8,30.21,NNW,327,0.0,0.0,88,0.00,,,0.00,Wunderground v.1.15,2013-11-03 05:53:00,
2013-11-03 01:04:00,31.4,28.3,30.21,NNW,327,0.0,0.0,88,0.00,,,0.00,Wunderground v.1.15,2013-11-03 06:04:00,
2013-11-03 01:14:00,31.1,28.0,30.22,NNW,327,0.0,0.0,88,0.00,,,0.00,Wunderground v.1.15,2013-11-03 06:14:00,
2013-11-03 01:23:00,31.7,29.1,30.22,NNW,327,0.0,0.0,90,0.00,,,0.00,Wunderground v.1.15,2013-11-03 06:23:00,
2013-11-03 01:33:00,32.0,29.1,30.22,NNW,327,0.0,0.0,89,0.00,,,0.00,Wunderground v.1.15,2013-11-03 06:33:00,
2013-11-03 01:43:00,31.5,28.6,30.23,NNW,327,0.0,0.0,89,0.00,,,0.00,Wunderground v.1.15,2013-11-03 06:43:00,
2013-11-03 01:54:00,31.4,28.5,30.23,NNW,327,0.0,0.0,89,0.00,,,0.00,Wunderground v.1.15,2013-11-03 06:54:00,
2013-11-03 01:03:00,31.5,28.6,30.23,NNW,327,0.0,0.0,89,0.00,,,0.00,Wunderground v.1.15,2013-11-03 07:03:00,
2013-11-03 01:13:00,31.8,29.2,30.23,NNW,327,0.0,0.0,90,0.00,,,0.00,Wunderground v.1.15,2013-11-03 07:13:00,
2013-11-03 01:24:00,32.1,29.5,30.24,NNW,327,0.0,0.0,90,0.00,,,0.00,Wunderground v.1.15,2013-11-03 07:24:00,
2013-11-03 01:34:00,31.8,28.9,30.24,NNW,327,0.0,0.0,89,0.00,,,0.00,Wunderground v.1.15,2013-11-03 07:34:00,
2013-11-03 01:43:00,31.3,28.4,30.24,NNW,327,0.0,0.0,89,0.00,,,0.00,Wunderground v.1.15,2013-11-03 07:43:00,
2013-11-03 01:54:00,31.0,28.1,30.25,NNW,327,0.0,0.0,89,0.00,,,0.00,Wunderground v.1.15,2013-11-03 07:54:00,
2013-11-03 02:04:00,30.7,27.8,30.25,NNW,327,0.0,0.0,89,0.00,,,0.00,Wunderground v.1.15,2013-11-03 08:04:00,
2013-11-03 02:14:00,30.5,27.6,30.25,NNW,327,0.0,0.0,89,0.00,,,0.00,Wunderground v.1.15,2013-11-03 08:14:00,
2013-11-03 02:24:00,30.2,27.3,30.25,NNW,327,0.0,0.0,89,0.00,,,0.00,Wunderground v.1.15,2013-11-03 08:24:00,
2013-11-03 02:33:00,30.2,27.3,30.25,NNW,327,0.0,0.0,89,0.00,,,0.00,Wunderground v.1.15,2013-11-03 08:33:00,
2013-11-03 02:44:00,30.1,27.3,30.26,NNW,327,0.0,0.0,89,0.00,,,0.00,Wunderground v.1.15,2013-11-03 08:44:00,
2013-11-03 02:54:00,29.9,27.1,30.26,NNW,327,0.0,0.0,89,0.00,,,0.00,Wunderground v.1.15,2013-11-03 08:54:00,
2013-11-03 03:03:00,29.9,27.3,30.26,NNW,327,0.0,0.0,90,0.00,,,0.00,Wunderground v.1.15,2013-11-03 09:03:00,
2013-11-03 03:13:00,30.2,27.6,30.26,NNW,327,0.0,0.0,90,0.00,,,0.00,Wunderground v.1.15,2013-11-03 09:13:00,
2013-11-03 03:23:00,30.5,27.9,30.26,NNW,327,0.0,0.0,90,0.00,,,0.00,Wunderground v.1.15,2013-11-03 09:23:00,
2013-11-03 03:34:00,30.2,27.6,30.27,NNW,327,0.0,0.0,90,0.00,,,0.00,Wunderground v.1.15,2013-11-03 09:34:00,
2013-11-03 03:43:00,30.1,27.5,30.27,NNW,327,0.0,0.0,90,0.00,,,0.00,Wunderground v.1.15,2013-11-03 09:43:00,
2013-11-03 03:53:00,29.9,27.3,30.27,NNW,327,0.0,0.0,90,0.00,,,0.00,Wunderground v.1.15,2013-11-03 09:53:00,
2013-11-03 04:03:00,29.6,27.0,30.27,NNW,327,0.0,0.0,90,0.00,,,0.00,Wunderground v.1.15,2013-11-03 10:03:00,
2013-11-03 04:13:00,29.6,27.0,30.27,NNW,327,0.0,0.0,90,0.00,,,0.00,Wunderground v.1.15,2013-11-03 10:13:00,
2013-11-03 04:24:00,29.5,26.9,30.28,NNW,327,0.0,0.0,90,0.00,,,0.00,Wunderground v.1.15,2013-11-03 10:24:00,
2013-11-03 04:33:00,29.3,26.7,30.28,NNW,327,0.0,0.0,90,0.00,,,0.00,Wunderground v.1.15,2013-11-03 10:33:00,
2013-11-03 04:43:00,29.2,26.6,30.29,NNW,327,0.0,0.0,90,0.00,,,0.00,Wunderground v.1.15,2013-11-03 10:43:00,
2013-11-03 04:54:00,29.0,26.4,30.29,NNW,327,0.0,0.0,90,0.00,,,0.00,Wunderground v.1.15,2013-11-03 10:54:00,
2013-11-03 05:04:00,29.0,26.4,30.29,NNW,327,0.0,0.0,90,0.00,,,0.00,Wunderground v.1.15,2013-11-03 11:04:00,
2013-11-03 05:14:00,29.2,26.6,30.29,NNW,327,0.0,0.0,90,0.00,,,0.00,Wunderground v.1.15,2013-11-03 11:14:00,
2013-11-03 05:23:00,29.2,26.6,30.30,NNW,327,0.0,0.0,90,0.00,,,0.00,Wunderground v.1.15,2013-11-03 11:23:00,
2013-11-03 05:33:00,29.3,26.7,30.30,NNW,327,0.0,0.0,90,0.00,,,0.00,Wunderground v.1.15,2013-11-03 11:33:00,
2013-11-03 05:44:00,29.3,26.7,30.30,NNW,327,0.0,0.0,90,0.00,,,0.00,Wunderground v.1.15,2013-11-03 11:44:00,
2013-11-03 05:54:00,29.3,26.7,30.30,NNW,327,0.0,0.0,90,0.00,,,0.00,Wunderground v.1.15,2013-11-03 11:54:00,
2013-11-03 06:03:00,29.5,26.9,30.31,NNW,327,0.0,0.0,90,0.00,,,0.00,Wunderground v.1.15,2013-11-03 12:03:00,
2013-11-03 06:13:00,29.5,26.9,30.31,NNW,327,0.0,0.0,90,0.00,,,0.00,Wunderground v.1.15,2013-11-03 12:13:00,
2013-11-03 06:23:00,29.3,26.7,30.32,NNW,327,0.0,0.0,90,0.00,,,0.00,Wunderground v.1.15,2013-11-03 12:23:00,
2013-11-03 06:34:00,29.3,26.7,30.32,NNW,327,0.0,0.0,90,0.00,,,0.00,Wunderground v.1.15,2013-11-03 12:34:00,
2013-11-03 06:44:00,29.0,26.4,30.32,NNW,327,0.0,0.0,90,0.00,,,0.00,Wunderground v.1.15,2013-11-03 12:44:00,
2013-11-03 06:53:00,29.0,26.4,30.33,NNW,327,0.0,0.0,90,0.00,,,0.00,Wunderground v.1.15,2013-11-03 12:53:00,
2013-11-03 07:03:00,29.3,26.7,30.33,NNW,327,0.0,0.0,90,0.00,,,0.00,Wunderground v.1.15,2013-11-03 13:03:00,
2013-11-03 07:13:00,30.5,28.2,30.33,NNW,327,0.0,0.0,91,0.00,,,0.00,Wunderground v.1.15,2013-11-03 13:13:00,
2013-11-03 07:23:00,31.4,29.1,30.33,NNW,327,0.0,0.0,91,0.00,,,0.00,Wunderground v.1.15,2013-11-03 13:23:00,
2013-11-03 07:34:00,32.6,30.3,30.34,NNW,327,0.0,0.0,91,0.00,,,0.00,Wunderground v.1.15,2013-11-03 13:34:00,
2013-11-03 07:44:00,34.1,31.7,30.34,NNW,327,0.0,0.0,91,0.00,,,0.00,Wunderground v.1.15,2013-11-03 13:44:00,
2013-11-03 07:53:00,35.7,33.3,30.33,NNW,327,0.0,0.0,91,0.00,,,0.00,Wunderground v.1.15,2013-11-03 13:53:00,
2013-11-03 08:03:00,37.0,34.6,30.33,NNW,327,0.0,0.0,91,0.00,,,0.00,Wunderground v.1.15,2013-11-03 14:03:00,
2013-11-03 08:14:00,38.0,35.6,30.33,NNW,327,0.0,0.0,91,0.00,,,0.00,Wunderground v.1.15,2013-11-03 14:14:00,
2013-11-03 08:23:00,39.6,37.2,30.33,NNW,327,0.0,0.0,91,0.00,,,0.00,Wunderground v.1.15,2013-11-03 14:23:00,
2013-11-03 08:33:00,40.9,38.5,30.33,NNW,327,0.0,0.0,91,0.00,,,0.00,Wunderground v.1.15,2013-11-03 14:33:00,
2013-11-03 08:44:00,41.9,39.5,30.33,NNW,327,0.0,0.0,91,0.00,,,0.00,Wunderground v.1.15,2013-11-03 14:44:00,
2013-11-03 08:54:00,42.8,40.4,30.33,ENE,61,0.0,2.0,91,0.00,,,0.00,Wunderground v.1.15,2013-11-03 14:54:00,
2013-11-03 09:03:00,43.3,40.8,30.34,ENE,76,0.0,3.0,91,0.00,,,0.00,Wunderground v.1.15,2013-11-03 15:03:00,
2013-11-03 09:13:00,43.8,41.3,30.34,ENE,78,0.0,0.0,91,0.00,,,0.00,Wunderground v.1.15,2013-11-03 15:13:00,
2013-11-03 09:23:00,44.6,42.1,30.34,ESE,121,1.0,1.0,91,0.00,,,0.00,Wunderground v.1.15,2013-11-03 15:23:00,
2013-11-03 09:34:00,45.9,43.4,30.34,ESE,122,0.0,4.0,91,0.00,,,0.00,Wunderground v.1.15,2013-11-03 15:34:00,
2013-11-03 09:44:00,47.5,44.7,30.34,SE,134,1.0,3.0,90,0.00,,,0.00,Wunderground v.1.15,2013-11-03 15:44:00,
2013-11-03 09:53:00,49.4,44.5,30.34,SE,140,0.0,3.0,83,0.00,,,0.00,Wunderground v.1.15,2013-11-03 15:53:00,
2013-11-03 10:03:00,51.1,43.1,30.33,ESE,115,0.0,3.0,74,0.00,,,0.00,Wunderground v.1.15,2013-11-03 16:03:00,
2013-11-03 10:13:00,52.5,41.9,30.33,ESE,115,0.0,5.0,67,0.00,,,0.00,Wunderground v.1.15,2013-11-03 16:13:00,
2013-11-03 10:23:00,54.0,40.4,30.33,SSE,158,0.0,0.0,60,0.00,,,0.00,Wunderground v.1.15,2013-11-03 16:23:00,
2013-11-03 10:33:00,54.3,38.9,30.33,South,178,0.0,5.0,56,0.00,,,0.00,Wunderground v.1.15,2013-11-03 16:33:00,
2013-11-03 10:44:00,55.2,39.8,30.33,South,169,1.0,1.0,56,0.00,,,0.00,Wunderground v.1.15,2013-11-03 16:44:00,
2013-11-03 10:53:00,55.2,37.9,30.33,SSE,152,1.0,1.0,52,0.00,,,0.00,Wunderground v.1.15,2013-11-03 16:53:00,
2013-11-03 11:04:00,55.8,37.4,30.33,SSE,153,0.0,0.0,50,0.00,,,0.00,Wunderground v.1.15,2013-11-03 17:04:00,
2013-11-03 11:13:00,56.5,38.1,30.32,South,175,0.0,2.0,50,0.00,,,0.00,Wunderground v.1.15,2013-11-03 17:13:00,
2013-11-03 11:23:00,56.8,37.3,30.31,SE,140,1.0,1.0,48,0.00,,,0.00,Wunderground v.1.15,2013-11-03 17:23:00,
2013-11-03 11:34:00,56.4,34.7,30.31,SSE,166,2.0,2.0,44,0.00,,,0.00,Wunderground v.1.15,2013-11-03 17:34:00,
2013-11-03 11:43:00,57.0,35.3,30.30,SSE,160,0.0,6.0,44,0.00,,,0.00,Wunderground v.1.15,2013-11-03 17:43:00,
2013-11-03 11:53:00,57.3,35.6,30.29,SE,132,0.0,1.0,44,0.00,,,0.00,Wunderground v.1.15,2013-11-03 17:53:00,
2013-11-03 12:03:00,57.6,34.1,30.28,SE,144,2.0,2.0,41,0.00,,,0.00,Wunderground v.1.15,2013-11-03 18:03:00,
2013-11-03 12:13:00,58.0,33.8,30.28,SE,131,1.0,1.0,40,0.00,,,0.00,Wunderground v.1.15,2013-11-03 18:13:00,
2013-11-03 12:23:00,58.0,32.5,30.27,South,172,2.0,6.0,38,0.00,,,0.00,Wunderground v.1.15,2013-11-03 18:23:00,
2013-11-03 12:34:00,58.0,32.5,30.27,SE,136,1.0,1.0,38,0.00,,,0.00,Wunderground v.1.15,2013-11-03 18:34:00,
2013-11-03 12:43:00,58.3,32.1,30.26,South,182,1.0,9.0,37,0.00,,,0.00,Wunderground v.1.15,2013-11-03 18:43:00,
2013-11-03 12:54:00,58.5,33.6,30.26,SSE,166,2.0,5.0,39,0.00,,,0.00,Wunderground v.1.15,2013-11-03 18:54:00,
2013-11-03 13:04:00,58.5,33.6,30.26,SSE,160,1.0,1.0,39,0.00,,,0.00,Wunderground v.1.15,2013-11-03 19:04:00,
2013-11-03 13:13:00,58.9,34.0,30.26,South,171,2.0,7.0,39,0.00,,,0.00,Wunderground v.1.15,2013-11-03 19:13:00,
2013-11-03 13:24:00,58.9,34.0,30.26,SSE,153,2.0,2.0,39,0.00,,,0.00,Wunderground v.1.15,2013-11-03 19:24:00,
2013-11-03 13:33:00,59.2,32.2,30.25,SE,126,0.0,3.0,36,0.00,,,0.00,Wunderground v.1.15,2013-11-03 19:33:00,
2013-11-03 13:43:00,59.0,32.1,30.24,SE,144,1.0,5.0,36,0.00,,,0.00,Wunderground v.1.15,2013-11-03 19:43:00,
2013-11-03 13:53:00,59.0,32.1,30.24,SE,146,1.0,1.0,36,0.00,,,0.00,Wunderground v.1.15,2013-11-03 19:53:00,
2013-11-03 14:04:00,58.9,32.7,30.24,SSE,155,0.0,3.0,37,0.00,,,0.00,Wunderground v.1.15,2013-11-03 20:04:00,
2013-11-03 14:14:00,58.5,32.3,30.24,SE,144,2.0,2.0,37,0.00,,,0.00,Wunderground v.1.15,2013-11-03 20:14:00,
2013-11-03 14:23:00,58.2,33.3,30.24,SSE,160,1.0,1.0,39,0.00,,,0.00,Wunderground v.1.15,2013-11-03 20:23:00,
2013-11-03 14:34:00,58.0,31.2,30.24,SSE,165,1.0,5.0,36,0.00,,,0.00,Wunderground v.1.15,2013-11-03 20:34:00,
2013-11-03 14:44:00,57.0,31.0,30.24,SE,134,3.0,3.0,37,0.00,,,0.00,Wunderground v.1.15,2013-11-03 20:44:00,
2013-11-03 14:53:00,57.0,31.6,30.24,SE,146,0.0,3.0,38,0.00,,,0.00,Wunderground v.1.15,2013-11-03 20:53:00,
2013-11-03 15:03:00,56.5,31.2,30.24,SE,142,2.0,4.0,38,0.00,,,0.00,Wunderground v.1.15,2013-11-03 21:03:00,
2013-11-03 15:13:00,55.9,31.3,30.23,SSE,163,1.0,5.0,39,0.00,,,0.00,Wunderground v.1.15,2013-11-03 21:13:00,
2013-11-03 15:24:00,55.3,33.2,30.23,SSE,151,0.0,5.0,43,0.00,,,0.00,Wunderground v.1.15,2013-11-03 21:24:00,
2013-11-03 15:34:00,54.5,31.9,30.23,SSE,165,0.0,5.0,42,0.00,,,0.00,Wunderground v.1.15,2013-11-03 21:34:00,
2013-11-03 15:43:00,53.9,31.9,30.24,SSE,154,0.0,4.0,43,0.00,,,0.00,Wunderground v.1.15,2013-11-03 21:43:00,
2013-11-03 15:54:00,53.3,32.5,30.23,SSE,165,0.0,0.0,45,0.00,,,0.00,Wunderground v.1.15,2013-11-03 21:54:00,
2013-11-03 16:04:00,53.0,33.8,30.23,SSE,157,0.0,1.0,48,0.00,,,0.00,Wunderground v.1.15,2013-11-03 22:04:00,
2013-11-03 16:14:00,52.4,33.3,30.23,SSE,157,0.0,0.0,48,0.00,,,0.00,Wunderground v.1.15,2013-11-03 22:14:00,
2013-11-03 16:24:00,51.6,33.0,30.23,SSE,157,0.0,0.0,49,0.00,,,0.00,Wunderground v.1.15,2013-11-03 22:24:00,
2013-11-03 16:33:00,50.8,33.3,30.22,SSE,156,0.0,0.0,51,0.00,,,0.00,Wunderground v.1.15,2013-11-03 22:33:00,
2013-11-03 16:43:00,49.7,33.2,30.22,SE,134,0.0,1.0,53,0.00,,,0.00,Wunderground v.1.15,2013-11-03 22:43:00,
2013-11-03 16:54:00,49.0,33.1,30.22,SE,134,0.0,0.0,54,0.00,,,0.00,Wunderground v.1.15,2013-11-03 22:54:00,
2013-11-03 17:03:00,48.1,33.1,30.22,SE,134,0.0,0.0,56,0.00,,,0.00,Wunderground v.1.15,2013-11-03 23:03:00,
2013-11-03 17:14:00,47.2,33.2,30.23,SE,134,0.0,0.0,58,0.00,,,0.00,Wunderground v.1.15,2013-11-03 23:14:00,
2013-11-03 17:24:00,46.3,33.6,30.23,SE,134,0.0,0.0,61,0.00,,,0.00,Wunderground v.1.15,2013-11-03 23:24:00,
2013-11-03 17:33:00,45.6,33.3,30.23,SE,134,0.0,1.0,62,0.00,,,0.00,Wunderground v.1.15,2013-11-03 23:33:00,
2013-11-03 17:44:00,45.1,33.6,30.24,SE,134,0.0,0.0,64,0.00,,,0.00,Wunderground v.1.15,2013-11-03 23:44:00,
2013-11-03 17:54:00,44.8,33.4,30.23,SE,134,0.0,0.0,64,0.00,,,0.00,Wunderground v.1.15,2013-11-03 23:54:00,
2013-11-03 18:03:00,44.2,33.2,30.23,SE,134,0.0,0.0,65,0.00,,,0.00,Wunderground v.1.15,2013-11-04 00:03:00,
2013-11-03 18:13:00,43.8,33.2,30.24,SE,134,0.0,0.0,66,0.00,,,0.00,Wunderground v.1.15,2013-11-04 00:13:00,
2013-11-03 18:24:00,43.5,33.6,30.24,SE,134,0.0,0.0,68,0.00,,,0.00,Wunderground v.1.15,2013-11-04 00:24:00,
2013-11-03 18:33:00,43.3,33.8,30.24,SE,134,0.0,0.0,69,0.00,,,0.00,Wunderground v.1.15,2013-11-04 00:33:00,
2013-11-03 18:43:00,43.5,34.4,30.23,SE,134,0.0,1.0,70,0.00,,,0.00,Wunderground v.1.15,2013-11-04 00:43:00,
2013-11-03 18:54:00,43.6,34.5,30.24,SE,134,0.0,0.0,70,0.00,,,0.00,Wunderground v.1.15,2013-11-04 00:54:00,
2013-11-03 19:03:00,44.2,35.0,30.24,SE,134,0.0,0.0,70,0.00,,,0.00,Wunderground v.1.15,2013-11-04 01:03:00,
2013-11-03 19:13:00,44.3,34.8,30.24,SE,132,0.0,0.0,69,0.00,,,0.00,Wunderground v.1.15,2013-11-04 01:13:00,
2013-11-03 19:24:00,44.6,35.1,30.22,SE,130,0.0,3.0,69,0.00,,,0.00,Wunderground v.1.15,2013-11-04 01:24:00,
2013-11-03 19:34:00,45.2,34.9,30.22,SE,139,1.0,1.0,67,0.00,,,0.00,Wunderground v.1.15,2013-11-04 01:34:00,
2013-11-03 19:44:00,45.6,34.9,30.22,SE,133,0.0,3.0,66,0.00,,,0.00,Wunderground v.1.15,2013-11-04 01:44:00,
2013-11-03 19:53:00,45.9,34.8,30.21,SSE,148,0.0,3.0,65,0.00,,,0.00,Wunderground v.1.15,2013-11-04 01:53:00,
2013-11-03 20:04:00,45.8,34.7,30.22,SSE,160,0.0,2.0,65,0.00,,,0.00,Wunderground v.1.15,2013-11-04 02:04:00,
2013-11-03 20:13:00,45.5,34.4,30.22,SE,125,0.0,2.0,65,0.00,,,0.00,Wunderground v.1.15,2013-11-04 02:13:00,
2013-11-03 20:24:00,45.2,34.5,30.22,ESE,114,0.0,0.0,66,0.00,,,0.00,Wunderground v.1.15,2013-11-04 02:24:00,
2013-11-03 20:34:00,44.8,34.5,30.23,SE,134,0.0,2.0,67,0.00,,,0.00,Wunderground v.1.15,2013-11-04 02:34:00,
2013-11-03 20:43:00,44.6,34.7,30.23,SE,134,0.0,0.0,68,0.00,,,0.00,Wunderground v.1.15,2013-11-04 02:43:00,
2013-11-03 20:54:00,44.6,35.1,30.23,SE,125,0.0,1.0,69,0.00,,,0.00,Wunderground v.1.15,2013-11-04 02:54:00,
2013-11-03 21:04:00,44.6,35.1,30.22,SE,126,0.0,2.0,69,0.00,,,0.00,Wunderground v.1.15,2013-11-04 03:04:00,
2013-11-03 21:14:00,44.5,35.3,30.22,SE,134,0.0,0.0,70,0.00,,,0.00,Wunderground v.1.15,2013-11-04 03:14:00,
2013-11-03 21:23:00,44.3,35.1,30.22,ESE,116,0.0,0.0,70,0.00,,,0.00,Wunderground v.1.15,2013-11-04 03:23:00,
2013-11-03 21:33:00,44.2,35.4,30.23,SE,131,0.0,0.0,71,0.00,,,0.00,Wunderground v.1.15,2013-11-04 03:33:00,
2013-11-03 21:44:00,44.2,35.7,30.22,SE,127,0.0,0.0,72,0.00,,,0.00,Wunderground v.1.15,2013-11-04 03:44:00,
2013-11-03 21:53:00,44.3,35.8,30.22,SE,126,0.0,3.0,72,0.00,,,0.00,Wunderground v.1.15,2013-11-04 03:53:00,
2013-11-03 22:03:00,44.2,35.7,30.22,SE,125,0.0,0.0,72,0.00,,,0.00,Wunderground v.1.15,2013-11-04 04:03:00,
2013-11-03 22:14:00,44.1,36.0,30.21,SE,127,0.0,3.0,73,0.00,,,0.00,Wunderground v.1.15,2013-11-04 04:14:00,
2013-11-03 22:23:00,44.2,36.1,30.22,SE,139,0.0,0.0,73,0.00,,,0.00,Wunderground v.1.15,2013-11-04 04:23:00,
2013-11-03 22:33:00,44.2,36.1,30.21,SE,136,0.0,0.0,73,0.00,,,0.00,Wunderground v.1.15,2013-11-04 04:33:00,
2013-11-03 22:44:00,44.1,36.0,30.21,SE,130,1.0,1.0,73,0.00,,,0.00,Wunderground v.1.15,2013-11-04 04:44:00,
2013-11-03 22:53:00,43.9,35.8,30.21,ESE,118,0.0,3.0,73,0.00,,,0.00,Wunderground v.1.15,2013-11-04 04:53:00,
2013-11-03 23:03:00,43.9,35.8,30.21,SE,145,0.0,2.0,73,0.00,,,0.00,Wunderground v.1.15,2013-11-04 05:03:00,
2013-11-03 23:08:00,43.9,35.8,30.21,SSE,147,0.0,2.0,73,0.00,,,0.00,Wunderground v.1.15,2013-11-04 05:08:00,
2013-11-03 23:13:00,43.9,35.8,30.21,ESE,121,0.0,4.0,73,0.00,,,0.00,Wunderground v.1.15,2013-11-04 05:13:00,
2013-11-03 23:24:00,43.8,35.7,30.21,SE,131,0.0,1.0,73,0.00,,,0.00,Wunderground v.1.15,2013-11-04 05:24:00,
2013-11-03 23:28:00,43.6,35.5,30.21,SE,126,0.0,1.0,73,0.00,,,0.00,Wunderground v.1.15,2013-11-04 05:28:00,
2013-11-03 23:34:00,43.6,35.5,30.22,SE,133,0.0,3.0,73,0.00,,,0.00,Wunderground v.1.15,2013-11-04 05:34:00,
2013-11-03 23:43:00,43.6,35.9,30.21,SE,136,0.0,1.0,74,0.00,,,0.00,Wunderground v.1.15,2013-11-04 05:43:00,
2013-11-03 23:54:00,43.6,35.9,30.22,SE,136,0.0,0.0,74,0.00,,,0.00,Wunderground v.1.15,2013-11-04 05:54:00,